Time;durP1;ratioP1;P1;durP2;ratioP2;P2;SDS_P1;SDS_P2;PMS_P1;PMS_P2;Temp;Humidity;BMP_temperature;BMP_pressure;BME280_temperature;BME280_humidity;BME280_pressure;Samples;Min_cycle;Max_cycle;Signal;HPM_P1;HPM_P2
2022/03/28 00:01:29;;;;;;;4.70;3.58;;;;;;;4.25;33.64;100087.85;1745952;81;22085;-67
2022/03/28 00:03:56;;;;;;;8.75;4.05;;;;;;;4.25;33.60;100076.84;1751849;81;21065;-68
2022/03/28 00:06:24;;;;;;;5.65;4.40;;;;;;;4.27;33.62;100070.16;1746330;81;21033;-68
2022/03/28 00:08:51;;;;;;;6.10;4.00;;;;;;;4.28;33.64;100062.60;1725096;83;21010;-67
2022/03/28 00:11:18;;;;;;;4.65;3.25;;;;;;;4.29;33.72;100061.66;1725351;83;20966;-68
2022/03/28 00:13:46;;;;;;;5.05;3.62;;;;;;;4.30;33.78;100060.21;1726013;83;21270;-67
2022/03/28 00:16:13;;;;;;;4.03;2.83;;;;;;;4.32;33.88;100064.06;1741224;81;20889;-66
2022/03/28 00:18:41;;;;;;;4.37;2.60;;;;;;;4.31;33.98;100056.63;1744826;82;21042;-69
2022/03/28 00:21:08;;;;;;;5.53;2.58;;;;;;;4.32;34.15;100060.11;1741716;81;21123;-68
2022/03/28 00:23:36;;;;;;;3.12;2.42;;;;;;;4.31;34.28;100054.47;1753088;81;21002;-67
2022/03/28 00:26:04;;;;;;;4.20;2.58;;;;;;;4.28;34.49;100050.75;1739310;81;21043;-67
2022/03/28 00:28:32;;;;;;;4.90;3.00;;;;;;;4.22;34.64;100042.83;1730336;81;20994;-67
2022/03/28 00:30:59;;;;;;;3.62;2.37;;;;;;;4.20;34.80;100054.44;1731269;81;20914;-67
2022/03/28 00:33:27;;;;;;;3.58;2.52;;;;;;;4.16;34.92;100053.85;1750245;81;21567;-66
2022/03/28 00:35:54;;;;;;;3.87;2.60;;;;;;;4.15;35.05;100057.90;1752820;81;22278;-68
2022/03/28 00:38:21;;;;;;;3.80;2.98;;;;;;;4.12;35.27;100063.42;1750368;81;21125;-67
2022/03/28 00:40:48;;;;;;;4.67;3.05;;;;;;;4.09;35.49;100062.34;1748558;81;21034;-65
2022/03/28 00:43:16;;;;;;;5.35;3.10;;;;;;;4.07;35.71;100061.11;1741418;81;21024;-66
2022/03/28 00:45:43;;;;;;;5.33;2.95;;;;;;;4.05;35.87;100062.19;1741299;81;20962;-68
2022/03/28 00:48:11;;;;;;;4.97;3.35;;;;;;;4.02;36.08;100053.20;1763808;81;20904;-68
2022/03/28 00:50:39;;;;;;;4.75;2.87;;;;;;;3.99;36.29;100052.95;1763619;81;21512;-67
2022/03/28 00:53:10;;;;;;;3.92;2.75;;;;;;;3.95;36.44;100047.56;1763996;81;21029;-67
2022/03/28 00:55:39;;;;;;;3.45;2.80;;;;;;;3.92;36.58;100044.31;1762944;81;20968;-67
2022/03/28 00:58:06;;;;;;;4.12;2.87;;;;;;;3.87;36.65;100035.45;1763211;80;21507;-67
2022/03/28 01:00:34;;;;;;;4.72;2.75;;;;;;;3.86;36.71;100029.00;1745571;80;21519;-67
2022/03/28 01:03:03;;;;;;;3.75;2.50;;;;;;;3.84;36.80;100026.93;1734924;81;21853;-67
2022/03/28 01:05:31;;;;;;;5.30;3.72;;;;;;;3.83;36.81;100023.95;1739964;81;20935;-68
2022/03/28 01:08:00;;;;;;;9.00;2.65;;;;;;;3.81;36.92;100016.66;1762542;81;21033;-67
2022/03/28 01:10:27;;;;;;;4.58;2.50;;;;;;;3.80;36.98;100011.02;1762309;81;20935;-67
2022/03/28 01:12:54;;;;;;;3.98;2.42;;;;;;;3.78;37.06;100007.17;1746750;81;21566;-65
2022/03/28 01:15:22;;;;;;;2.67;2.25;;;;;;;3.78;37.09;100000.59;1736544;81;21419;-68
2022/03/28 01:18:06;;;;;;;3.37;2.10;;;;;;;3.75;37.18;99992.45;1763514;81;20927;-67
2022/03/28 01:20:34;;;;;;;4.25;2.05;;;;;;;3.73;37.25;99999.63;1764303;81;20924;-67
2022/03/28 01:23:02;;;;;;;2.92;2.27;;;;;;;3.72;37.37;99990.55;1762909;81;21476;-67
2022/03/28 01:25:29;;;;;;;4.35;2.35;;;;;;;3.70;37.41;99984.06;1762752;81;20992;-67
2022/03/28 01:27:58;;;;;;;4.50;2.27;;;;;;;3.73;37.44;99989.09;1761330;81;21253;-67
2022/03/28 01:30:28;;;;;;;3.52;2.08;;;;;;;3.71;37.45;99980.48;1760808;80;20884;-67
2022/03/28 01:32:58;;;;;;;3.58;1.95;;;;;;;3.71;37.46;99979.17;1762215;81;21488;-66
2022/03/28 01:35:33;;;;;;;4.60;2.22;;;;;;;3.73;37.46;99968.05;1739437;80;21052;-66
2022/03/28 01:38:01;;;;;;;2.65;1.70;;;;;;;3.74;37.46;99963.63;1760804;81;21056;-68
2022/03/28 01:40:29;;;;;;;3.27;1.77;;;;;;;3.76;37.39;99965.66;1762369;81;21157;-68
2022/03/28 01:42:56;;;;;;;3.30;2.08;;;;;;;3.80;37.33;99961.02;1736718;81;21021;-67
2022/03/28 01:45:23;;;;;;;3.55;1.98;;;;;;;3.83;37.26;99952.42;1733279;82;20997;-66
2022/03/28 01:47:50;;;;;;;2.08;1.60;;;;;;;3.88;37.17;99946.80;1757950;81;20923;-67
2022/03/28 01:50:18;;;;;;;2.42;1.65;;;;;;;3.92;37.10;99947.76;1763637;81;21032;-67
2022/03/28 01:52:46;;;;;;;2.33;1.47;;;;;;;3.97;37.06;99940.81;1763965;81;21259;-66
2022/03/28 01:55:13;;;;;;;2.40;1.50;;;;;;;4.01;37.02;99934.38;1763233;81;20954;-67
2022/03/28 01:57:41;;;;;;;2.20;1.50;;;;;;;4.04;36.98;99927.56;1763263;81;21465;-67
2022/03/28 02:00:18;;;;;;;3.52;1.57;;;;;;;4.08;36.92;99927.67;1742569;81;21054;-67
2022/03/28 02:02:48;;;;;;;3.00;1.70;;;;;;;4.12;36.93;99929.13;1735654;81;20973;-67
2022/03/28 02:05:15;;;;;;;3.80;1.50;;;;;;;4.14;36.91;99927.21;1732835;82;21155;-67
2022/03/28 02:07:47;;;;;;;2.55;1.45;;;;;;;4.15;36.90;99924.45;1754183;81;20926;-66
2022/03/28 02:10:18;;;;;;;1.98;1.35;;;;;;;4.17;36.92;99923.03;1736555;81;21105;-66
2022/03/28 02:12:47;;;;;;;3.02;1.50;;;;;;;4.16;36.96;99914.76;1733273;82;21013;-67
2022/03/28 02:15:16;;;;;;;2.80;1.70;;;;;;;4.16;36.96;99913.44;1744993;81;20994;-66
2022/03/28 02:17:43;;;;;;;3.05;1.45;;;;;;;4.15;36.99;99909.12;1741395;81;22081;-67
2022/03/28 02:20:12;;;;;;;2.58;1.65;;;;;;;4.16;37.00;99909.02;1727225;83;20981;-69
2022/03/28 02:22:39;;;;;;;2.05;1.42;;;;;;;4.20;37.00;99910.91;1732982;81;21000;-67
2022/03/28 02:25:08;;;;;;;3.20;1.70;;;;;;;4.17;37.09;99900.64;1743804;81;21075;-68
2022/03/28 02:27:35;;;;;;;2.80;1.65;;;;;;;4.16;37.19;99905.54;1760469;81;21575;-68
2022/03/28 02:30:06;;;;;;;2.65;1.70;;;;;;;4.15;37.21;99906.02;1763274;81;20982;-68
2022/03/28 02:32:34;;;;;;;2.80;1.90;;;;;;;4.15;37.33;99905.17;1764245;81;21591;-67
2022/03/28 02:35:03;;;;;;;3.22;1.90;;;;;;;4.15;37.45;99903.85;1762940;81;21055;-67
2022/03/28 02:37:30;;;;;;;2.40;1.50;;;;;;;4.13;37.58;99913.20;1759691;81;20956;-67
2022/03/28 02:39:58;;;;;;;2.52;1.62;;;;;;;4.10;37.69;99911.27;1755531;81;21449;-67
2022/03/28 02:42:25;;;;;;;5.55;2.08;;;;;;;4.06;37.76;99905.90;1759213;80;22046;-67
2022/03/28 02:44:54;;;;;;;2.80;1.70;;;;;;;4.03;37.81;99900.87;1726002;81;21563;-67
2022/03/28 02:47:21;;;;;;;2.87;2.00;;;;;;;4.00;37.96;99901.09;1736682;81;20991;-67
2022/03/28 02:49:50;;;;;;;2.70;1.75;;;;;;;3.99;38.05;99896.30;1749295;82;20963;-66
2022/03/28 02:52:17;;;;;;;3.98;1.92;;;;;;;3.98;38.16;99888.06;1749004;81;20995;-69
2022/03/28 02:54:44;;;;;;;2.40;1.50;;;;;;;3.96;38.23;99881.25;1749805;82;21608;-67
2022/03/28 02:57:11;;;;;;;5.12;1.92;;;;;;;3.98;38.33;99880.64;1749293;81;21526;-67
2022/03/28 02:59:39;;;;;;;3.50;1.77;;;;;;;3.97;38.45;99873.69;1740492;81;20993;-69
2022/03/28 03:02:07;;;;;;;2.40;1.95;;;;;;;3.96;38.54;99868.93;1725689;81;21069;-68
2022/03/28 03:04:36;;;;;;;2.33;1.92;;;;;;;3.94;38.61;99875.23;1741196;81;21479;-68
2022/03/28 03:07:04;;;;;;;3.87;2.40;;;;;;;3.92;38.70;99867.95;1754658;81;21886;-67
2022/03/28 03:09:32;;;;;;;4.08;2.27;;;;;;;3.88;38.74;99862.10;1746095;81;20895;-67
2022/03/28 03:12:00;;;;;;;3.55;2.25;;;;;;;3.87;38.74;99866.15;1727977;81;20990;-67
2022/03/28 03:14:29;;;;;;;5.67;2.37;;;;;;;3.85;38.76;99866.28;1751218;81;21033;-67
2022/03/28 03:16:57;;;;;;;4.85;2.20;;;;;;;3.82;38.86;99859.93;1754876;81;21022;-68
2022/03/28 03:19:24;;;;;;;4.50;1.95;;;;;;;3.82;38.91;99858.62;1754668;81;21362;-66
2022/03/28 03:21:52;;;;;;;2.90;2.10;;;;;;;3.78;39.06;99851.89;1755883;81;21418;-68
2022/03/28 03:24:19;;;;;;;3.95;1.90;;;;;;;3.76;39.17;99852.50;1752742;81;21004;-67
2022/03/28 03:26:46;;;;;;;2.75;1.67;;;;;;;3.77;39.27;99848.08;1755765;81;20946;-66
2022/03/28 03:29:13;;;;;;;2.92;2.00;;;;;;;3.75;39.38;99845.08;1754932;81;20943;-66
2022/03/28 03:31:40;;;;;;;2.52;1.85;;;;;;;3.78;39.48;99850.58;1725537;81;21281;-67
2022/03/28 03:34:07;;;;;;;2.40;1.60;;;;;;;3.78;39.61;99851.89;1732264;81;20985;-66
2022/03/28 03:36:36;;;;;;;9.30;2.45;;;;;;;3.80;39.69;99838.64;1754099;81;20990;-67
2022/03/28 03:39:03;;;;;;;3.90;1.80;;;;;;;3.81;39.80;99837.69;1754372;81;21094;-66
2022/03/28 03:41:32;;;;;;;3.12;1.80;;;;;;;3.82;39.94;99836.25;1755026;81;21481;-68
2022/03/28 03:43:59;;;;;;;3.55;1.75;;;;;;;3.86;39.99;99826.33;1755130;81;21831;-68
2022/03/28 03:46:27;;;;;;;2.45;1.70;;;;;;;3.85;40.07;99825.95;1745381;81;21105;-68
2022/03/28 03:48:54;;;;;;;3.20;1.85;;;;;;;3.86;40.10;99823.70;1730987;81;21582;-66
2022/03/28 03:51:21;;;;;;;2.77;2.08;;;;;;;3.87;40.18;99820.09;1745123;81;21538;-66
2022/03/28 03:56:23;;;;;;;2.20;1.60;;;;;;;3.89;40.16;99803.69;1730321;83;21215;-66
2022/03/28 03:58:50;;;;;;;6.28;1.85;;;;;;;3.91;40.11;99811.02;1759641;81;20887;-67
2022/03/28 04:01:18;;;;;;;3.75;1.80;;;;;;;3.93;40.07;99797.24;1756060;81;21519;-66
2022/03/28 04:03:45;;;;;;;2.33;1.40;;;;;;;3.94;40.03;99796.27;1759490;81;21460;-68
2022/03/28 04:06:13;;;;;;;3.67;1.62;;;;;;;3.94;40.00;99791.84;1753700;80;21057;-67
2022/03/28 04:08:41;;;;;;;2.98;1.70;;;;;;;3.96;40.01;99793.06;1737298;81;21255;-67
2022/03/28 04:11:10;;;;;;;1.80;1.30;;;;;;;3.97;40.01;99785.50;1729764;83;21957;-67
2022/03/28 04:13:37;;;;;;;3.40;1.82;;;;;;;3.97;39.99;99785.03;1730446;83;20969;-67
2022/03/28 04:16:06;;;;;;;2.52;1.47;;;;;;;4.00;40.01;99783.47;1755310;81;21174;-66
2022/03/28 04:18:35;;;;;;;2.85;1.67;;;;;;;4.03;40.02;99782.39;1755271;81;20956;-66
2022/03/28 04:21:03;;;;;;;2.92;1.70;;;;;;;4.05;40.06;99783.10;1748788;81;21591;-67
2022/03/28 04:23:30;;;;;;;3.17;1.85;;;;;;;4.08;40.04;99774.97;1751032;81;21570;-66
2022/03/28 04:25:58;;;;;;;3.20;1.75;;;;;;;4.11;39.98;99773.41;1746796;81;21638;-67
2022/03/28 04:28:26;;;;;;;4.80;1.90;;;;;;;4.14;39.92;99775.33;1760660;81;20953;-68
2022/03/28 04:30:54;;;;;;;3.45;1.90;;;;;;;4.21;39.85;99768.60;1760312;81;21511;-67
2022/03/28 04:33:21;;;;;;;3.08;2.00;;;;;;;4.26;39.73;99768.23;1761257;81;21240;-68
2022/03/28 04:35:50;;;;;;;3.35;2.02;;;;;;;4.32;39.64;99759.84;1755721;81;21416;-68
2022/03/28 04:38:17;;;;;;;3.92;1.80;;;;;;;4.41;39.48;99757.76;1756286;81;21084;-66
2022/03/28 04:40:45;;;;;;;2.52;1.60;;;;;;;4.47;39.40;99754.63;1744728;81;21072;-68
2022/03/28 04:43:12;;;;;;;2.58;1.55;;;;;;;4.52;39.27;99759.52;1725593;83;21079;-67
2022/03/28 04:45:42;;;;;;;3.72;1.60;;;;;;;4.54;39.23;99763.70;1724953;83;22095;-68
2022/03/28 04:48:09;;;;;;;2.25;1.50;;;;;;;4.59;39.13;99756.25;1727262;81;21120;-67
2022/03/28 04:50:36;;;;;;;2.98;2.08;;;;;;;4.63;39.03;99752.42;1725644;83;21452;-69
2022/03/28 04:53:03;;;;;;;2.65;1.70;;;;;;;4.67;38.89;99749.87;1727372;81;21032;-67
2022/03/28 04:55:31;;;;;;;3.37;1.82;;;;;;;4.70;38.80;99740.41;1725537;83;21101;-68
2022/03/28 04:57:58;;;;;;;6.67;2.22;;;;;;;4.73;38.75;99736.20;1725605;83;21319;-66
2022/03/28 05:00:25;;;;;;;2.85;1.80;;;;;;;4.77;38.59;99737.61;1727294;80;21523;-66
2022/03/28 05:02:54;;;;;;;2.77;1.70;;;;;;;4.81;38.54;99745.63;1727929;80;21152;-66
2022/03/28 05:05:21;;;;;;;4.03;2.10;;;;;;;4.90;38.42;99740.09;1727485;81;21009;-68
2022/03/28 05:07:48;;;;;;;4.00;2.10;;;;;;;5.03;38.34;99731.98;1727302;81;21064;-66
2022/03/28 05:10:16;;;;;;;2.77;1.80;;;;;;;5.24;38.13;99723.57;1724772;83;22159;-68
2022/03/28 05:12:43;;;;;;;4.08;1.98;;;;;;;5.51;37.70;99723.34;1726915;81;20985;-66
2022/03/28 05:15:11;;;;;;;3.70;2.20;;;;;;;5.87;37.27;99715.38;1747987;81;20975;-68
2022/03/28 05:17:38;;;;;;;2.62;1.87;;;;;;;6.27;36.63;99707.40;1731481;81;21559;-67
2022/03/28 05:20:08;;;;;;;7.08;2.30;;;;;;;6.66;35.99;99706.44;1753764;81;21009;-66
2022/03/28 05:22:36;;;;;;;4.92;2.37;;;;;;;7.12;35.32;99705.66;1759929;80;21122;-67
2022/03/28 05:25:07;;;;;;;3.85;2.35;;;;;;;7.70;34.55;99693.55;1731537;81;20935;-67
2022/03/28 05:27:44;;;;;;;3.25;1.70;;;;;;;8.23;33.57;99691.85;1752677;81;21033;-67
2022/03/28 05:30:11;;;;;;;3.35;2.17;;;;;;;8.80;32.67;99684.43;1753199;81;21106;-67
2022/03/28 05:32:39;;;;;;;2.70;1.72;;;;;;;9.36;31.82;99680.02;1754385;81;21460;-69
2022/03/28 05:35:07;;;;;;;6.25;2.40;;;;;;;9.85;30.95;99680.05;1736538;81;21236;-67
2022/03/28 05:37:35;;;;;;;4.78;2.20;;;;;;;10.35;30.21;99671.27;1745762;81;21046;-67
2022/03/28 05:40:05;;;;;;;3.10;2.27;;;;;;;10.72;29.33;99674.26;1757509;81;22291;-68
2022/03/28 05:42:32;;;;;;;4.37;2.17;;;;;;;10.89;28.80;99669.28;1758171;81;20959;-68
2022/03/28 05:45:00;;;;;;;6.60;2.00;;;;;;;10.98;28.39;99666.92;1756110;80;21128;-68
2022/03/28 05:47:27;;;;;;;2.98;2.10;;;;;;;10.97;28.03;99675.93;1733344;81;21447;-67
2022/03/28 05:49:54;;;;;;;3.90;2.00;;;;;;;11.10;27.87;99657.61;1734523;81;21557;-67
2022/03/28 05:52:22;;;;;;;2.90;1.95;;;;;;;11.23;27.50;99661.08;1732495;82;21601;-68
2022/03/28 05:54:49;;;;;;;3.98;2.50;;;;;;;11.48;27.04;99671.14;1756740;81;21552;-64
2022/03/28 05:57:17;;;;;;;4.28;2.33;;;;;;;11.76;26.61;99657.24;1762315;81;21017;-66
2022/03/28 05:59:44;;;;;;;4.47;2.17;;;;;;;12.15;26.10;99659.06;1761572;81;22173;-68
2022/03/28 06:02:11;;;;;;;5.75;3.77;;;;;;;12.53;25.42;99653.29;1755105;81;20974;-66
2022/03/28 06:04:38;;;;;;;3.30;2.40;;;;;;;12.75;24.93;99652.42;1741335;81;21052;-67
2022/03/28 06:07:05;;;;;;;4.62;2.60;;;;;;;12.84;24.75;99658.03;1762522;81;20993;-66
2022/03/28 06:09:34;;;;;;;5.28;2.87;;;;;;;12.88;24.56;99655.31;1763250;81;21072;-66
2022/03/28 06:12:01;;;;;;;4.92;3.80;;;;;;;12.97;24.51;99648.91;1764119;81;22078;-67
2022/03/28 06:14:28;;;;;;;3.33;2.60;;;;;;;12.97;24.31;99635.05;1737692;80;21609;-67
2022/03/28 06:16:55;;;;;;;4.65;3.67;;;;;;;13.07;24.14;99630.80;1734817;81;21097;-64
2022/03/28 06:19:25;;;;;;;5.05;3.20;;;;;;;13.35;24.01;99625.16;1732512;82;21448;-66
2022/03/28 06:21:52;;;;;;;4.17;2.92;;;;;;;13.73;23.71;99614.34;1738310;81;21460;-62
2022/03/28 06:24:20;;;;;;;4.17;2.20;;;;;;;14.14;23.38;99611.42;1758014;80;21321;-67
2022/03/28 06:26:50;;;;;;;4.33;2.25;;;;;;;14.56;23.12;99610.64;1757211;81;21085;-66
2022/03/28 06:29:19;;;;;;;3.85;2.37;;;;;;;14.86;22.38;99601.39;1740490;81;21091;-65
2022/03/28 06:31:48;;;;;;;3.20;2.40;;;;;;;15.10;21.86;99599.63;1753751;81;21054;-64
2022/03/28 06:34:17;;;;;;;3.27;2.30;;;;;;;15.31;21.61;99594.19;1741196;81;21008;-66
2022/03/28 06:36:46;;;;;;;4.78;2.75;;;;;;;15.58;21.26;99580.44;1732880;82;21080;-67
2022/03/28 06:39:14;;;;;;;5.40;2.47;;;;;;;15.93;20.83;99577.98;1730087;81;21156;-66
2022/03/28 06:41:42;;;;;;;3.22;2.33;;;;;;;16.19;20.47;99574.52;1733261;81;21000;-65
2022/03/28 06:44:13;;;;;;;5.60;2.67;;;;;;;16.34;20.18;99575.70;1739249;81;21002;-66
2022/03/28 06:46:43;;;;;;;5.47;2.83;;;;;;;16.34;20.11;99561.77;1727811;81;21032;-67
2022/03/28 06:49:11;;;;;;;5.75;2.75;;;;;;;16.55;20.01;99575.03;1727348;81;22004;-66
2022/03/28 06:51:40;;;;;;;6.05;2.40;;;;;;;16.66;19.63;99567.67;1727284;81;21052;-66
2022/03/28 06:54:08;;;;;;;4.72;2.40;;;;;;;16.64;19.56;99559.00;1737204;81;20986;-67
2022/03/28 06:56:37;;;;;;;4.33;2.60;;;;;;;16.68;19.46;99559.42;1742288;81;21081;-68
2022/03/28 06:59:06;;;;;;;4.47;2.25;;;;;;;16.67;19.33;99561.80;1727128;81;20985;-68
2022/03/28 07:01:36;;;;;;;4.55;2.37;;;;;;;16.79;19.22;99540.52;1733839;81;21265;-68
2022/03/28 07:04:05;;;;;;;5.22;2.47;;;;;;;16.83;19.17;99548.45;1744149;81;21097;-66
2022/03/28 07:06:35;;;;;;;3.37;2.50;;;;;;;17.04;19.07;99552.25;1754195;81;21052;-67
2022/03/28 07:09:04;;;;;;;4.22;2.40;;;;;;;17.16;18.84;99546.01;1730507;81;22202;-65
2022/03/28 07:11:34;;;;;;;3.80;2.80;;;;;;;17.21;18.81;99543.51;1754122;81;21041;-66
2022/03/28 07:14:02;;;;;;;5.03;2.90;;;;;;;17.37;18.86;99534.66;1755916;80;21129;-67
2022/03/28 07:16:31;;;;;;;3.27;2.60;;;;;;;17.67;18.80;99533.14;1754189;81;21073;-67
2022/03/28 07:19:00;;;;;;;4.97;2.80;;;;;;;17.96;18.60;99529.88;1753100;81;20997;-67
2022/03/28 07:21:28;;;;;;;3.70;3.02;;;;;;;18.16;18.47;99533.78;1754837;81;21618;-67
2022/03/28 07:23:57;;;;;;;4.50;2.98;;;;;;;18.33;18.08;99529.50;1754801;81;21032;-65
2022/03/28 07:26:25;;;;;;;3.22;2.62;;;;;;;18.37;18.05;99520.78;1754076;81;22413;-66
2022/03/28 07:28:57;;;;;;;4.10;2.77;;;;;;;18.56;17.96;99519.00;1730490;81;21001;-67
2022/03/28 07:31:23;;;;;;;3.30;2.58;;;;;;;18.83;17.94;99511.48;1753594;81;21603;-66
2022/03/28 07:33:52;;;;;;;3.95;2.75;;;;;;;18.98;17.59;99513.31;1737915;81;20989;-66
2022/03/28 07:36:20;;;;;;;4.40;2.87;;;;;;;19.18;17.74;99517.96;1737544;80;21566;-68
2022/03/28 07:38:48;;;;;;;5.20;2.92;;;;;;;19.58;17.41;99500.78;1747126;81;21279;-70
2022/03/28 07:41:17;;;;;;;4.40;2.92;;;;;;;19.79;17.07;99493.54;1717374;82;21054;-67
2022/03/28 07:43:45;;;;;;;7.15;2.75;;;;;;;19.76;16.86;99488.63;1727991;82;21001;-66
2022/03/28 07:46:14;;;;;;;4.28;2.30;;;;;;;19.77;16.92;99493.47;1733813;82;21133;-64
2022/03/28 07:48:43;;;;;;;5.78;2.70;;;;;;;19.99;16.88;99490.57;1731803;82;20938;-65
2022/03/28 07:51:11;;;;;;;7.78;2.95;;;;;;;20.42;16.82;99484.39;1707798;82;21790;-67
2022/03/28 07:53:40;;;;;;;3.37;2.40;;;;;;;20.87;16.38;99476.00;1717241;82;20997;-67
2022/03/28 07:56:08;;;;;;;3.55;2.47;;;;;;;21.07;16.12;99465.34;1720768;82;21040;-67
2022/03/28 07:58:37;;;;;;;5.40;2.30;;;;;;;21.04;15.93;99459.05;1705053;82;21153;-65
2022/03/28 08:01:05;;;;;;;9.05;3.00;;;;;;;21.07;16.08;99454.00;1733404;82;21000;-65
2022/03/28 08:03:34;;;;;;;3.65;2.52;;;;;;;21.29;15.81;99443.38;1717658;82;21229;-66
2022/03/28 08:06:03;;;;;;;16.12;2.47;;;;;;;21.28;15.86;99444.42;1731765;82;21557;-66
2022/03/28 08:08:32;;;;;;;7.45;2.50;;;;;;;21.41;15.71;99436.02;1733669;82;20958;-66
2022/03/28 08:11:02;;;;;;;2.60;2.17;;;;;;;21.45;15.69;99420.44;1733038;82;21009;-67
2022/03/28 08:13:30;;;;;;;2.80;2.10;;;;;;;21.61;15.64;99419.36;1733948;82;21574;-65
2022/03/28 08:16:01;;;;;;;4.40;2.65;;;;;;;21.85;15.49;99421.69;1724834;82;20984;-67
2022/03/28 08:18:30;;;;;;;5.45;2.45;;;;;;;21.80;15.34;99420.25;1734159;82;21630;-66
2022/03/28 08:21:00;;;;;;;3.25;2.22;;;;;;;21.70;15.37;99415.18;1730632;81;21084;-66
2022/03/28 08:23:29;;;;;;;4.95;2.80;;;;;;;21.53;15.52;99411.11;1716419;82;21603;-67
2022/03/28 08:25:57;;;;;;;3.47;2.37;;;;;;;21.45;15.70;99405.55;1736759;82;21583;-65
2022/03/28 08:28:26;;;;;;;7.20;3.08;;;;;;;21.56;15.75;99418.75;1710359;82;21250;-67
2022/03/28 08:30:55;;;;;;;3.52;2.40;;;;;;;21.83;15.55;99414.34;1705106;82;21001;-68
2022/03/28 08:33:23;;;;;;;6.92;2.80;;;;;;;21.96;15.61;99405.11;1705234;83;20993;-66
2022/03/28 08:35:52;;;;;;;4.90;2.67;;;;;;;22.25;15.28;99399.08;1715660;82;21040;-66
2022/03/28 08:38:21;;;;;;;7.85;2.60;;;;;;;22.13;15.28;99395.12;1722330;82;22249;-68
2022/03/28 08:40:50;;;;;;;5.10;3.00;;;;;;;21.86;15.40;99378.69;1706653;83;21131;-69
2022/03/28 08:43:20;;;;;;;3.80;3.22;;;;;;;21.43;15.71;99375.19;1699532;83;21732;-70
2022/03/28 08:45:51;;;;;;;5.62;2.92;;;;;;;21.28;15.84;99376.27;1699760;83;21631;-67
2022/03/28 08:48:20;;;;;;;4.17;2.60;;;;;;;20.84;16.01;99368.85;1713502;83;21547;-68
2022/03/28 08:50:54;;;;;;;3.45;2.42;;;;;;;20.40;16.48;99361.41;1701279;83;21730;-66
2022/03/28 08:53:22;;;;;;;6.67;3.40;;;;;;;20.27;16.55;99358.42;1702928;83;21245;-65
2022/03/28 08:55:51;;;;;;;4.17;3.70;;;;;;;20.10;16.69;99352.86;1719833;83;20895;-67
2022/03/28 08:58:20;;;;;;;3.77;2.30;;;;;;;20.19;16.70;99344.72;1710179;83;21695;-65
2022/03/28 09:00:48;;;;;;;6.80;3.17;;;;;;;20.13;16.77;99342.94;1716868;83;21496;-68
2022/03/28 09:03:16;;;;;;;5.60;2.75;;;;;;;20.49;16.70;99335.69;1702118;82;21037;-68
2022/03/28 09:05:49;;;;;;;4.37;2.98;;;;;;;20.92;16.47;99326.05;1699880;83;21228;-66
2022/03/28 09:08:15;;;;;;;4.25;3.00;;;;;;;21.41;16.15;99322.37;1699894;83;21117;-67
2022/03/28 09:10:48;;;;;;;8.50;3.75;;;;;;;21.85;15.96;99307.13;1709446;83;21034;-68
2022/03/28 09:13:16;;;;;;;8.08;3.58;;;;;;;22.33;15.59;99314.13;1723105;83;21064;-69
2022/03/28 09:15:49;;;;;;;4.10;2.98;;;;;;;22.48;15.30;99289.11;1724567;83;22217;-68
2022/03/28 09:18:28;;;;;;;5.15;3.35;;;;;;;22.49;15.31;99290.76;1726328;83;21142;-68
2022/03/28 09:21:06;;;;;;;5.65;3.35;;;;;;;22.60;15.11;99306.88;1724940;83;21614;-67
2022/03/28 09:23:46;;;;;;;11.85;3.95;;;;;;;22.46;15.37;99283.95;1699509;83;21038;-69
2022/03/28 09:26:24;;;;;;;4.62;3.58;;;;;;;22.63;15.39;99281.22;1699677;83;21053;-67
2022/03/28 09:29:00;;;;;;;5.83;3.80;;;;;;;22.81;15.32;99271.93;1702074;83;21005;-67
2022/03/28 09:31:39;;;;;;;5.15;4.05;;;;;;;23.04;15.32;99261.61;1716414;83;21542;-66
2022/03/28 09:34:15;;;;;;;6.30;3.87;;;;;;;23.50;15.09;99264.22;1699630;83;21048;-67
2022/03/28 09:36:56;;;;;;;;;;;;;;;23.84;14.89;99245.73;1708283;82;20950;-68
2022/03/28 09:39:29;;;;;;;4.58;3.20;;;;;;;23.70;15.17;99248.65;1731561;81;20169;-66
2022/03/28 09:42:11;;;;;;;5.80;3.83;;;;;;;23.70;15.17;99248.65;1752707;80;21006;-70
2022/03/28 09:44:47;;;;;;;5.47;3.65;;;;;;;24.00;14.96;99238.50;1755799;81;21468;-67
2022/03/28 09:47:21;;;;;;;10.35;4.12;;;;;;;23.70;15.16;99226.92;1726159;81;21011;-67
2022/03/28 09:49:59;;;;;;;8.05;4.20;;;;;;;23.58;15.52;99225.73;1732749;81;21568;-67
2022/03/28 09:52:25;;;;;;;9.90;3.98;;;;;;;24.03;15.31;99213.53;1751365;81;21037;-67
2022/03/28 09:55:03;;;;;;;5.42;3.40;;;;;;;24.24;15.29;99231.61;1751122;81;21525;-67
2022/03/28 09:57:35;;;;;;;4.95;3.58;;;;;;;24.42;14.70;99231.14;1730503;81;21539;-66
2022/03/28 10:00:15;;;;;;;7.25;4.12;;;;;;;24.43;14.68;99226.78;1745953;81;21038;-66
2022/03/28 10:02:44;;;;;;;8.50;3.90;;;;;;;24.35;14.82;99231.94;1734213;81;20891;-66
2022/03/28 10:05:13;;;;;;;5.12;3.90;;;;;;;24.39;14.78;99208.03;1743769;80;20997;-68
2022/03/28 10:07:43;;;;;;;8.28;3.42;;;;;;;24.65;14.58;99194.50;1727448;81;20887;-68
2022/03/28 10:10:13;;;;;;;5.55;4.03;;;;;;;24.75;14.45;99202.14;1728389;81;21249;-68
2022/03/28 10:12:42;;;;;;;8.83;4.05;;;;;;;24.71;14.66;99183.38;1742960;81;21048;-69
2022/03/28 10:15:12;;;;;;;7.03;3.08;;;;;;;24.22;14.91;99203.31;1739598;81;21058;-66
2022/03/28 10:17:41;;;;;;;8.08;3.60;;;;;;;23.73;15.23;99187.00;1700002;83;21045;-67
2022/03/28 10:20:10;;;;;;;7.83;3.70;;;;;;;23.37;15.50;99185.12;1663936;84;21495;-66
2022/03/28 10:22:41;;;;;;;6.05;3.98;;;;;;;22.93;15.79;99181.20;1738889;81;21153;-68
2022/03/28 10:25:16;;;;;;;7.37;4.08;;;;;;;22.51;16.10;99163.92;1727005;81;21480;-66
2022/03/28 10:27:41;;;;;;;12.37;3.65;;;;;;;22.33;16.67;99171.04;1730449;80;21049;-68
2022/03/28 10:30:22;;;;;;;7.95;3.25;;;;;;;22.21;16.72;99165.77;1689137;83;21562;-66
2022/03/28 10:33:16;;;;;;;8.63;3.12;;;;;;;21.94;17.05;99159.45;1691255;82;21000;-67
2022/03/28 10:35:54;;;;;;;6.30;3.52;;;;;;;21.38;18.18;99154.57;1747585;81;21253;-67
2022/03/28 10:38:23;;;;;;;6.33;3.60;;;;;;;21.29;17.76;99137.66;1721480;81;21048;-67
2022/03/28 10:41:05;;;;;;;5.03;3.27;;;;;;;21.29;17.76;99137.66;1715425;81;21033;-67
2022/03/28 10:43:34;;;;;;;9.55;3.50;;;;;;;21.33;18.20;99122.03;1699889;83;21003;-67
2022/03/28 10:46:09;;;;;;;5.47;3.40;;;;;;;21.30;18.17;99137.96;1725852;82;20986;-69
2022/03/28 10:48:54;;;;;;;7.47;3.45;;;;;;;21.18;18.33;99134.51;1710545;83;21777;-67
2022/03/28 10:51:26;;;;;;;8.15;4.65;;;;;;;20.92;18.80;99123.26;1720073;82;21003;-67
2022/03/28 10:53:56;;;;;;;7.03;5.00;;;;;;;20.65;19.28;99131.70;1722476;82;20978;-68
2022/03/28 10:56:33;;;;;;;7.47;4.47;;;;;;;20.62;19.56;99120.58;1714380;83;21583;-69
2022/03/28 10:59:11;;;;;;;6.15;4.58;;;;;;;20.68;19.55;99114.17;1717483;83;21524;-68
2022/03/28 11:01:41;;;;;;;9.08;5.90;;;;;;;20.70;19.56;99113.42;1706066;82;21162;-68
2022/03/28 11:04:19;;;;;;;10.68;7.90;;;;;;;20.66;19.54;99098.74;1713517;83;21077;-67
2022/03/28 11:07:05;;;;;;;12.58;6.25;;;;;;;20.45;19.76;99095.39;1701926;83;20915;-68
2022/03/28 11:09:50;;;;;;;10.30;5.05;;;;;;;20.41;20.29;99101.83;1720786;83;20919;-66
2022/03/28 11:12:30;;;;;;;6.72;4.62;;;;;;;20.55;20.05;99095.05;1700080;83;21073;-66
2022/03/28 11:15:21;;;;;;;11.75;4.30;;;;;;;20.57;19.91;99081.30;1702929;82;21216;-67
2022/03/28 11:18:04;;;;;;;3.70;3.08;;;;;;;20.63;19.98;99091.12;1709114;83;21562;-66
2022/03/28 11:20:47;;;;;;;8.53;4.78;;;;;;;20.72;19.99;99074.27;1722318;83;21236;-69
2022/03/28 11:23:22;;;;;;;11.25;4.08;;;;;;;20.69;19.85;99049.09;1699346;82;21048;-66
2022/03/28 11:25:55;;;;;;;9.18;5.33;;;;;;;20.62;19.96;99066.53;1700033;83;20978;-68
2022/03/28 11:28:27;;;;;;;5.50;3.87;;;;;;;20.51;20.01;99050.67;1699391;83;21140;-67
2022/03/28 11:31:12;;;;;;;7.97;3.58;;;;;;;20.40;20.28;99058.30;1721319;83;21089;-69
2022/03/28 11:33:52;;;;;;;6.12;3.37;;;;;;;20.38;20.84;99056.91;1705460;83;21452;-67
2022/03/28 11:36:20;;;;;;;7.92;2.47;;;;;;;20.42;21.22;99043.19;1718583;82;20997;-67
2022/03/28 11:38:54;;;;;;;5.92;2.75;;;;;;;20.57;21.17;99031.31;1703027;83;21602;-69
2022/03/28 11:41:25;;;;;;;5.85;2.60;;;;;;;20.65;20.83;99030.91;1712830;81;21798;-68
2022/03/28 11:43:55;;;;;;;7.60;2.33;;;;;;;20.67;20.95;99025.55;1699742;83;21076;-68
2022/03/28 11:46:28;;;;;;;5.33;2.92;;;;;;;20.73;20.94;99024.54;1697222;84;21521;-68
2022/03/28 11:49:07;;;;;;;4.45;2.50;;;;;;;20.72;20.77;99017.52;1697441;84;20950;-67
2022/03/28 11:51:43;;;;;;;4.35;2.22;;;;;;;20.69;20.77;98999.61;1698501;84;20951;-68